sensor_id;sensor_type;location;lat;lon;timestamp;P1;durP1;ratioP1;P2;durP2;ratioP2
22768;SDS011;13001;51.968;5.918;2024-03-02T00:02:07;2.47;;;0.90;;
22768;SDS011;13001;51.968;5.918;2024-03-02T00:04:35;3.75;;;0.90;;
22768;SDS011;13001;51.968;5.918;2024-03-02T00:07:03;3.43;;;0.90;;
22768;SDS011;13001;51.968;5.918;2024-03-02T00:09:30;3.58;;;0.90;;
22768;SDS011;13001;51.968;5.918;2024-03-02T00:11:59;2.27;;;0.98;;
22768;SDS011;13001;51.968;5.918;2024-03-02T00:14:30;2.10;;;1.00;;
22768;SDS011;13001;51.968;5.918;2024-03-02T00:16:57;2.20;;;0.93;;
22768;SDS011;13001;51.968;5.918;2024-03-02T00:19:26;2.42;;;1.10;;
22768;SDS011;13001;51.968;5.918;2024-03-02T00:21:55;3.58;;;0.98;;
22768;SDS011;13001;51.968;5.918;2024-03-02T00:24:32;3.52;;;1.10;;
22768;SDS011;13001;51.968;5.918;2024-03-02T00:27:01;2.15;;;0.80;;
22768;SDS011;13001;51.968;5.918;2024-03-02T00:29:30;2.65;;;0.93;;
22768;SDS011;13001;51.968;5.918;2024-03-02T00:31:58;2.35;;;1.00;;
22768;SDS011;13001;51.968;5.918;2024-03-02T00:34:27;2.60;;;1.10;;
22768;SDS011;13001;51.968;5.918;2024-03-02T00:36:57;2.15;;;1.07;;
22768;SDS011;13001;51.968;5.918;2024-03-02T00:39:25;3.05;;;1.00;;
22768;SDS011;13001;51.968;5.918;2024-03-02T00:41:53;2.37;;;1.00;;
22768;SDS011;13001;51.968;5.918;2024-03-02T00:44:20;2.33;;;1.10;;
22768;SDS011;13001;51.968;5.918;2024-03-02T00:46:51;3.27;;;1.10;;
22768;SDS011;13001;51.968;5.918;2024-03-02T00:49:21;2.22;;;0.90;;
22768;SDS011;13001;51.968;5.918;2024-03-02T00:51:50;2.35;;;1.00;;
22768;SDS011;13001;51.968;5.918;2024-03-02T00:54:23;3.05;;;0.85;;
22768;SDS011;13001;51.968;5.918;2024-03-02T00:56:54;3.40;;;1.10;;
22768;SDS011;13001;51.968;5.918;2024-03-02T00:59:23;2.08;;;1.02;;
22768;SDS011;13001;51.968;5.918;2024-03-02T01:01:50;2.67;;;1.07;;
22768;SDS011;13001;51.968;5.918;2024-03-02T01:04:18;2.40;;;1.00;;
22768;SDS011;13001;51.968;5.918;2024-03-02T01:06:46;2.47;;;1.00;;
22768;SDS011;13001;51.968;5.918;2024-03-02T01:09:14;6.25;;;1.15;;
22768;SDS011;13001;51.968;5.918;2024-03-02T01:11:43;3.50;;;1.10;;
22768;SDS011;13001;51.968;5.918;2024-03-02T01:14:11;5.08;;;1.17;;
22768;SDS011;13001;51.968;5.918;2024-03-02T01:16:38;2.50;;;0.95;;
22768;SDS011;13001;51.968;5.918;2024-03-02T01:19:06;1.75;;;0.95;;
22768;SDS011;13001;51.968;5.918;2024-03-02T01:21:35;2.15;;;1.00;;
22768;SDS011;13001;51.968;5.918;2024-03-02T01:24:02;2.50;;;0.90;;
22768;SDS011;13001;51.968;5.918;2024-03-02T01:26:30;3.35;;;0.80;;
22768;SDS011;13001;51.968;5.918;2024-03-02T01:28:57;2.95;;;0.90;;
22768;SDS011;13001;51.968;5.918;2024-03-02T01:31:25;1.37;;;0.70;;
22768;SDS011;13001;51.968;5.918;2024-03-02T01:33:52;2.37;;;0.70;;
22768;SDS011;13001;51.968;5.918;2024-03-02T01:36:20;1.65;;;0.70;;
22768;SDS011;13001;51.968;5.918;2024-03-02T01:38:47;5.75;;;2.10;;
22768;SDS011;13001;51.968;5.918;2024-03-02T01:41:15;3.23;;;1.27;;
22768;SDS011;13001;51.968;5.918;2024-03-02T01:43:43;1.55;;;0.80;;
22768;SDS011;13001;51.968;5.918;2024-03-02T01:46:10;2.70;;;0.70;;
22768;SDS011;13001;51.968;5.918;2024-03-02T01:48:38;1.90;;;0.60;;
22768;SDS011;13001;51.968;5.918;2024-03-02T01:51:06;1.40;;;0.45;;
22768;SDS011;13001;51.968;5.918;2024-03-02T01:53:38;2.50;;;0.40;;
22768;SDS011;13001;51.968;5.918;2024-03-02T01:56:03;1.90;;;0.42;;
22768;SDS011;13001;51.968;5.918;2024-03-02T01:58:31;1.15;;;0.37;;
22768;SDS011;13001;51.968;5.918;2024-03-02T02:00:58;1.25;;;0.30;;
22768;SDS011;13001;51.968;5.918;2024-03-02T02:03:25;1.10;;;0.37;;
22768;SDS011;13001;51.968;5.918;2024-03-02T02:05:53;1.10;;;0.30;;
22768;SDS011;13001;51.968;5.918;2024-03-02T02:08:20;0.82;;;0.30;;
22768;SDS011;13001;51.968;5.918;2024-03-02T02:10:48;0.47;;;0.30;;
22768;SDS011;13001;51.968;5.918;2024-03-02T02:13:15;0.75;;;0.30;;
22768;SDS011;13001;51.968;5.918;2024-03-02T02:15:43;0.35;;;0.20;;
22768;SDS011;13001;51.968;5.918;2024-03-02T02:18:10;0.40;;;0.20;;
22768;SDS011;13001;51.968;5.918;2024-03-02T02:20:38;1.25;;;0.30;;
22768;SDS011;13001;51.968;5.918;2024-03-02T02:23:05;1.20;;;0.30;;
22768;SDS011;13001;51.968;5.918;2024-03-02T02:25:35;0.70;;;0.30;;
22768;SDS011;13001;51.968;5.918;2024-03-02T02:28:02;1.10;;;0.30;;
22768;SDS011;13001;51.968;5.918;2024-03-02T02:30:31;0.95;;;0.30;;
22768;SDS011;13001;51.968;5.918;2024-03-02T02:32:59;0.62;;;0.30;;
22768;SDS011;13001;51.968;5.918;2024-03-02T02:35:26;0.70;;;0.20;;
22768;SDS011;13001;51.968;5.918;2024-03-02T02:37:55;0.53;;;0.30;;
22768;SDS011;13001;51.968;5.918;2024-03-02T02:40:24;0.90;;;0.30;;
22768;SDS011;13001;51.968;5.918;2024-03-02T02:42:51;0.68;;;0.30;;
22768;SDS011;13001;51.968;5.918;2024-03-02T02:45:19;2.30;;;0.30;;
22768;SDS011;13001;51.968;5.918;2024-03-02T02:47:47;1.93;;;0.30;;
22768;SDS011;13001;51.968;5.918;2024-03-02T02:50:15;2.33;;;0.30;;
22768;SDS011;13001;51.968;5.918;2024-03-02T02:52:42;0.60;;;0.30;;
22768;SDS011;13001;51.968;5.918;2024-03-02T02:55:10;0.42;;;0.23;;
22768;SDS011;13001;51.968;5.918;2024-03-02T02:57:41;0.60;;;0.30;;
22768;SDS011;13001;51.968;5.918;2024-03-02T03:00:13;1.60;;;0.20;;
22768;SDS011;13001;51.968;5.918;2024-03-02T03:02:42;0.60;;;0.20;;
22768;SDS011;13001;51.968;5.918;2024-03-02T03:05:11;0.50;;;0.20;;
22768;SDS011;13001;51.968;5.918;2024-03-02T03:07:40;0.53;;;0.20;;
22768;SDS011;13001;51.968;5.918;2024-03-02T03:10:08;0.40;;;0.20;;
22768;SDS011;13001;51.968;5.918;2024-03-02T03:12:36;1.47;;;0.28;;
22768;SDS011;13001;51.968;5.918;2024-03-02T03:15:04;0.53;;;0.30;;
22768;SDS011;13001;51.968;5.918;2024-03-02T03:17:32;1.15;;;0.30;;
22768;SDS011;13001;51.968;5.918;2024-03-02T03:20:01;0.40;;;0.20;;
22768;SDS011;13001;51.968;5.918;2024-03-02T03:22:30;0.45;;;0.20;;
22768;SDS011;13001;51.968;5.918;2024-03-02T03:24:58;0.80;;;0.20;;
22768;SDS011;13001;51.968;5.918;2024-03-02T03:27:25;1.47;;;0.25;;
22768;SDS011;13001;51.968;5.918;2024-03-02T03:29:53;0.63;;;0.40;;
22768;SDS011;13001;51.968;5.918;2024-03-02T03:32:21;0.87;;;0.30;;
22768;SDS011;13001;51.968;5.918;2024-03-02T03:34:48;1.10;;;0.30;;
22768;SDS011;13001;51.968;5.918;2024-03-02T03:37:16;0.85;;;0.28;;
22768;SDS011;13001;51.968;5.918;2024-03-02T03:39:45;0.80;;;0.30;;
22768;SDS011;13001;51.968;5.918;2024-03-02T03:42:12;0.90;;;0.27;;
22768;SDS011;13001;51.968;5.918;2024-03-02T03:44:40;0.72;;;0.20;;
22768;SDS011;13001;51.968;5.918;2024-03-02T03:47:07;0.72;;;0.20;;
22768;SDS011;13001;51.968;5.918;2024-03-02T03:49:35;1.15;;;0.30;;
22768;SDS011;13001;51.968;5.918;2024-03-02T03:52:02;0.70;;;0.30;;
22768;SDS011;13001;51.968;5.918;2024-03-02T03:54:30;0.33;;;0.20;;
22768;SDS011;13001;51.968;5.918;2024-03-02T03:56:58;1.55;;;0.30;;
22768;SDS011;13001;51.968;5.918;2024-03-02T03:59:25;1.22;;;0.40;;
22768;SDS011;13001;51.968;5.918;2024-03-02T04:01:53;0.97;;;0.20;;
22768;SDS011;13001;51.968;5.918;2024-03-02T04:04:20;0.93;;;0.30;;
22768;SDS011;13001;51.968;5.918;2024-03-02T04:06:48;1.27;;;0.30;;
22768;SDS011;13001;51.968;5.918;2024-03-02T04:09:15;0.88;;;0.30;;
22768;SDS011;13001;51.968;5.918;2024-03-02T04:11:43;0.53;;;0.20;;
22768;SDS011;13001;51.968;5.918;2024-03-02T04:14:10;0.70;;;0.20;;
22768;SDS011;13001;51.968;5.918;2024-03-02T04:16:38;0.90;;;0.30;;
22768;SDS011;13001;51.968;5.918;2024-03-02T04:19:05;0.80;;;0.30;;
22768;SDS011;13001;51.968;5.918;2024-03-02T04:21:33;0.45;;;0.25;;
22768;SDS011;13001;51.968;5.918;2024-03-02T04:24:01;0.80;;;0.40;;
22768;SDS011;13001;51.968;5.918;2024-03-02T04:26:29;1.92;;;0.20;;
22768;SDS011;13001;51.968;5.918;2024-03-02T04:28:56;0.70;;;0.30;;
22768;SDS011;13001;51.968;5.918;2024-03-02T04:31:24;0.75;;;0.30;;
22768;SDS011;13001;51.968;5.918;2024-03-02T04:33:52;1.07;;;0.30;;
22768;SDS011;13001;51.968;5.918;2024-03-02T04:36:20;1.60;;;0.40;;
22768;SDS011;13001;51.968;5.918;2024-03-02T04:38:47;0.60;;;0.30;;
22768;SDS011;13001;51.968;5.918;2024-03-02T04:41:15;0.85;;;0.40;;
22768;SDS011;13001;51.968;5.918;2024-03-02T04:43:42;0.50;;;0.33;;
22768;SDS011;13001;51.968;5.918;2024-03-02T04:46:10;0.68;;;0.30;;
22768;SDS011;13001;51.968;5.918;2024-03-02T04:48:37;0.40;;;0.30;;
22768;SDS011;13001;51.968;5.918;2024-03-02T04:51:05;2.17;;;0.40;;
22768;SDS011;13001;51.968;5.918;2024-03-02T04:53:32;0.47;;;0.30;;
22768;SDS011;13001;51.968;5.918;2024-03-02T04:56:00;1.35;;;0.40;;
22768;SDS011;13001;51.968;5.918;2024-03-02T04:58:47;1.13;;;0.30;;
22768;SDS011;13001;51.968;5.918;2024-03-02T05:01:15;2.17;;;0.30;;
22768;SDS011;13001;51.968;5.918;2024-03-02T05:03:43;0.82;;;0.40;;
22768;SDS011;13001;51.968;5.918;2024-03-02T05:06:10;0.60;;;0.30;;
22768;SDS011;13001;51.968;5.918;2024-03-02T05:08:38;1.05;;;0.40;;
22768;SDS011;13001;51.968;5.918;2024-03-02T05:11:06;1.15;;;0.40;;
22768;SDS011;13001;51.968;5.918;2024-03-02T05:13:51;0.55;;;0.40;;
22768;SDS011;13001;51.968;5.918;2024-03-02T05:16:18;1.90;;;0.50;;
22768;SDS011;13001;51.968;5.918;2024-03-02T05:18:46;1.75;;;0.30;;
22768;SDS011;13001;51.968;5.918;2024-03-02T05:21:13;0.55;;;0.33;;
22768;SDS011;13001;51.968;5.918;2024-03-02T05:23:41;1.05;;;0.40;;
22768;SDS011;13001;51.968;5.918;2024-03-02T05:26:10;1.10;;;0.40;;
22768;SDS011;13001;51.968;5.918;2024-03-02T05:28:40;0.70;;;0.30;;
22768;SDS011;13001;51.968;5.918;2024-03-02T05:31:11;1.00;;;0.42;;
22768;SDS011;13001;51.968;5.918;2024-03-02T05:33:40;1.80;;;0.40;;
22768;SDS011;13001;51.968;5.918;2024-03-02T05:36:07;0.80;;;0.30;;
22768;SDS011;13001;51.968;5.918;2024-03-02T05:38:35;0.50;;;0.28;;
22768;SDS011;13001;51.968;5.918;2024-03-02T05:41:03;4.25;;;0.42;;
22768;SDS011;13001;51.968;5.918;2024-03-02T05:43:30;1.35;;;0.30;;
22768;SDS011;13001;51.968;5.918;2024-03-02T05:45:58;2.50;;;0.50;;
22768;SDS011;13001;51.968;5.918;2024-03-02T05:48:25;1.87;;;0.60;;
22768;SDS011;13001;51.968;5.918;2024-03-02T05:50:53;2.60;;;0.50;;
22768;SDS011;13001;51.968;5.918;2024-03-02T05:53:20;3.60;;;0.47;;
22768;SDS011;13001;51.968;5.918;2024-03-02T05:55:48;1.07;;;0.40;;
22768;SDS011;13001;51.968;5.918;2024-03-02T05:58:18;1.35;;;0.40;;
22768;SDS011;13001;51.968;5.918;2024-03-02T06:00:50;2.22;;;0.50;;
22768;SDS011;13001;51.968;5.918;2024-03-02T06:03:20;0.98;;;0.45;;
22768;SDS011;13001;51.968;5.918;2024-03-02T06:05:48;1.98;;;0.40;;
22768;SDS011;13001;51.968;5.918;2024-03-02T06:08:16;2.37;;;0.40;;
22768;SDS011;13001;51.968;5.918;2024-03-02T06:10:45;1.17;;;0.35;;
22768;SDS011;13001;51.968;5.918;2024-03-02T06:13:13;1.70;;;0.50;;
22768;SDS011;13001;51.968;5.918;2024-03-02T06:15:40;1.80;;;0.40;;
22768;SDS011;13001;51.968;5.918;2024-03-02T06:18:08;1.50;;;0.40;;
22768;SDS011;13001;51.968;5.918;2024-03-02T06:20:36;2.50;;;0.40;;
22768;SDS011;13001;51.968;5.918;2024-03-02T06:23:03;1.55;;;0.40;;
22768;SDS011;13001;51.968;5.918;2024-03-02T06:25:31;1.72;;;0.40;;
22768;SDS011;13001;51.968;5.918;2024-03-02T06:27:59;2.75;;;0.60;;
22768;SDS011;13001;51.968;5.918;2024-03-02T06:30:27;2.62;;;0.50;;
22768;SDS011;13001;51.968;5.918;2024-03-02T06:32:56;1.70;;;0.40;;
22768;SDS011;13001;51.968;5.918;2024-03-02T06:35:24;1.57;;;0.50;;
22768;SDS011;13001;51.968;5.918;2024-03-02T06:37:52;3.20;;;0.57;;
22768;SDS011;13001;51.968;5.918;2024-03-02T06:40:19;2.57;;;0.50;;
22768;SDS011;13001;51.968;5.918;2024-03-02T06:42:48;1.77;;;0.40;;
22768;SDS011;13001;51.968;5.918;2024-03-02T06:45:16;1.82;;;0.40;;
22768;SDS011;13001;51.968;5.918;2024-03-02T06:47:43;1.47;;;0.40;;
22768;SDS011;13001;51.968;5.918;2024-03-02T06:50:11;0.98;;;0.30;;
22768;SDS011;13001;51.968;5.918;2024-03-02T06:52:39;2.05;;;0.50;;
22768;SDS011;13001;51.968;5.918;2024-03-02T06:55:06;1.47;;;0.37;;
22768;SDS011;13001;51.968;5.918;2024-03-02T06:57:34;0.65;;;0.30;;
22768;SDS011;13001;51.968;5.918;2024-03-02T07:00:01;3.17;;;0.40;;
22768;SDS011;13001;51.968;5.918;2024-03-02T07:02:31;0.98;;;0.35;;
22768;SDS011;13001;51.968;5.918;2024-03-02T07:04:58;0.80;;;0.47;;
22768;SDS011;13001;51.968;5.918;2024-03-02T07:07:26;2.07;;;0.30;;
22768;SDS011;13001;51.968;5.918;2024-03-02T07:09:53;1.30;;;0.40;;
22768;SDS011;13001;51.968;5.918;2024-03-02T07:12:21;0.77;;;0.30;;
22768;SDS011;13001;51.968;5.918;2024-03-02T07:14:48;0.80;;;0.30;;
22768;SDS011;13001;51.968;5.918;2024-03-02T07:17:33;0.70;;;0.40;;
22768;SDS011;13001;51.968;5.918;2024-03-02T07:20:02;3.45;;;0.60;;
22768;SDS011;13001;51.968;5.918;2024-03-02T07:22:29;3.63;;;0.50;;
22768;SDS011;13001;51.968;5.918;2024-03-02T07:24:57;1.67;;;0.60;;
22768;SDS011;13001;51.968;5.918;2024-03-02T07:27:24;2.57;;;0.50;;
22768;SDS011;13001;51.968;5.918;2024-03-02T07:29:52;1.55;;;0.40;;
22768;SDS011;13001;51.968;5.918;2024-03-02T07:32:23;0.80;;;0.40;;
22768;SDS011;13001;51.968;5.918;2024-03-02T07:34:50;2.13;;;0.50;;
22768;SDS011;13001;51.968;5.918;2024-03-02T07:37:18;1.03;;;0.40;;
22768;SDS011;13001;51.968;5.918;2024-03-02T07:39:46;1.63;;;0.30;;
22768;SDS011;13001;51.968;5.918;2024-03-02T07:42:14;1.43;;;0.50;;
22768;SDS011;13001;51.968;5.918;2024-03-02T07:44:43;2.20;;;0.40;;
22768;SDS011;13001;51.968;5.918;2024-03-02T07:47:11;2.30;;;0.40;;
22768;SDS011;13001;51.968;5.918;2024-03-02T07:49:39;2.05;;;0.40;;
22768;SDS011;13001;51.968;5.918;2024-03-02T07:52:06;1.47;;;0.50;;
22768;SDS011;13001;51.968;5.918;2024-03-02T07:54:34;2.92;;;0.40;;
22768;SDS011;13001;51.968;5.918;2024-03-02T07:57:02;0.88;;;0.40;;
22768;SDS011;13001;51.968;5.918;2024-03-02T07:59:29;0.93;;;0.40;;
22768;SDS011;13001;51.968;5.918;2024-03-02T08:01:57;1.12;;;0.37;;
22768;SDS011;13001;51.968;5.918;2024-03-02T08:04:26;0.90;;;0.47;;
22768;SDS011;13001;51.968;5.918;2024-03-02T08:06:54;1.02;;;0.45;;
22768;SDS011;13001;51.968;5.918;2024-03-02T08:09:21;0.57;;;0.30;;
22768;SDS011;13001;51.968;5.918;2024-03-02T08:11:49;1.25;;;0.45;;
22768;SDS011;13001;51.968;5.918;2024-03-02T08:14:17;3.42;;;0.37;;
22768;SDS011;13001;51.968;5.918;2024-03-02T08:16:46;2.08;;;0.55;;
22768;SDS011;13001;51.968;5.918;2024-03-02T08:19:13;0.78;;;0.37;;
22768;SDS011;13001;51.968;5.918;2024-03-02T08:21:42;0.78;;;0.30;;
22768;SDS011;13001;51.968;5.918;2024-03-02T08:24:10;2.98;;;0.40;;
22768;SDS011;13001;51.968;5.918;2024-03-02T08:26:37;1.72;;;0.50;;
22768;SDS011;13001;51.968;5.918;2024-03-02T08:29:05;2.22;;;0.65;;
22768;SDS011;13001;51.968;5.918;2024-03-02T08:31:33;0.80;;;0.50;;
22768;SDS011;13001;51.968;5.918;2024-03-02T08:34:00;1.42;;;0.40;;
22768;SDS011;13001;51.968;5.918;2024-03-02T08:36:28;1.75;;;0.50;;
22768;SDS011;13001;51.968;5.918;2024-03-02T08:38:55;0.88;;;0.42;;
22768;SDS011;13001;51.968;5.918;2024-03-02T08:41:23;5.40;;;0.53;;
22768;SDS011;13001;51.968;5.918;2024-03-02T08:43:50;0.93;;;0.40;;
22768;SDS011;13001;51.968;5.918;2024-03-02T08:46:18;2.35;;;0.60;;
22768;SDS011;13001;51.968;5.918;2024-03-02T08:48:45;1.55;;;0.60;;
22768;SDS011;13001;51.968;5.918;2024-03-02T08:51:14;2.50;;;0.60;;
22768;SDS011;13001;51.968;5.918;2024-03-02T08:53:42;0.95;;;0.45;;
22768;SDS011;13001;51.968;5.918;2024-03-02T08:56:09;2.10;;;0.50;;
22768;SDS011;13001;51.968;5.918;2024-03-02T08:58:38;2.62;;;0.50;;
22768;SDS011;13001;51.968;5.918;2024-03-02T09:01:06;2.30;;;0.60;;
22768;SDS011;13001;51.968;5.918;2024-03-02T09:03:34;1.72;;;0.60;;
22768;SDS011;13001;51.968;5.918;2024-03-02T09:06:01;3.98;;;0.70;;
22768;SDS011;13001;51.968;5.918;2024-03-02T09:08:29;4.53;;;0.85;;
22768;SDS011;13001;51.968;5.918;2024-03-02T09:10:56;0.85;;;0.50;;
22768;SDS011;13001;51.968;5.918;2024-03-02T09:13:25;1.42;;;0.60;;
22768;SDS011;13001;51.968;5.918;2024-03-02T09:15:53;2.27;;;0.60;;
22768;SDS011;13001;51.968;5.918;2024-03-02T09:18:20;1.47;;;0.60;;
22768;SDS011;13001;51.968;5.918;2024-03-02T09:20:48;1.85;;;0.60;;
22768;SDS011;13001;51.968;5.918;2024-03-02T09:23:15;3.80;;;0.80;;
22768;SDS011;13001;51.968;5.918;2024-03-02T09:25:43;1.65;;;0.60;;
22768;SDS011;13001;51.968;5.918;2024-03-02T09:28:10;1.52;;;0.50;;
22768;SDS011;13001;51.968;5.918;2024-03-02T09:30:39;3.65;;;0.65;;
22768;SDS011;13001;51.968;5.918;2024-03-02T09:33:07;4.08;;;0.60;;
22768;SDS011;13001;51.968;5.918;2024-03-02T09:35:34;3.00;;;0.90;;
22768;SDS011;13001;51.968;5.918;2024-03-02T09:38:02;2.95;;;0.57;;
22768;SDS011;13001;51.968;5.918;2024-03-02T09:40:30;2.25;;;0.55;;
22768;SDS011;13001;51.968;5.918;2024-03-02T09:42:58;0.82;;;0.50;;
22768;SDS011;13001;51.968;5.918;2024-03-02T09:45:26;2.12;;;0.55;;
22768;SDS011;13001;51.968;5.918;2024-03-02T09:47:54;2.98;;;0.60;;
22768;SDS011;13001;51.968;5.918;2024-03-02T09:50:22;6.12;;;0.60;;
22768;SDS011;13001;51.968;5.918;2024-03-02T09:52:49;4.42;;;0.60;;
22768;SDS011;13001;51.968;5.918;2024-03-02T09:55:17;1.90;;;0.70;;
22768;SDS011;13001;51.968;5.918;2024-03-02T09:57:46;1.20;;;0.50;;
22768;SDS011;13001;51.968;5.918;2024-03-02T10:00:14;3.67;;;0.60;;
22768;SDS011;13001;51.968;5.918;2024-03-02T10:02:42;1.83;;;0.50;;
22768;SDS011;13001;51.968;5.918;2024-03-02T10:05:10;2.07;;;0.60;;
22768;SDS011;13001;51.968;5.918;2024-03-02T10:07:40;2.20;;;0.73;;
22768;SDS011;13001;51.968;5.918;2024-03-02T10:10:14;1.87;;;0.60;;
22768;SDS011;13001;51.968;5.918;2024-03-02T10:12:42;1.87;;;0.73;;
22768;SDS011;13001;51.968;5.918;2024-03-02T10:15:10;1.27;;;0.60;;
22768;SDS011;13001;51.968;5.918;2024-03-02T10:17:39;2.57;;;0.73;;
22768;SDS011;13001;51.968;5.918;2024-03-02T10:20:27;4.33;;;0.80;;
22768;SDS011;13001;51.968;5.918;2024-03-02T10:22:51;2.53;;;0.60;;
22768;SDS011;13001;51.968;5.918;2024-03-02T10:25:29;4.63;;;0.70;;
22768;SDS011;13001;51.968;5.918;2024-03-02T10:28:00;3.80;;;0.90;;
22768;SDS011;13001;51.968;5.918;2024-03-02T10:30:29;1.97;;;0.57;;
22768;SDS011;13001;51.968;5.918;2024-03-02T10:32:57;1.10;;;0.53;;
22768;SDS011;13001;51.968;5.918;2024-03-02T10:35:24;1.90;;;0.57;;
22768;SDS011;13001;51.968;5.918;2024-03-02T10:37:53;3.07;;;0.67;;
22768;SDS011;13001;51.968;5.918;2024-03-02T10:40:21;4.37;;;0.73;;
22768;SDS011;13001;51.968;5.918;2024-03-02T10:42:50;2.07;;;0.70;;
22768;SDS011;13001;51.968;5.918;2024-03-02T10:45:17;2.73;;;0.60;;
22768;SDS011;13001;51.968;5.918;2024-03-02T10:47:49;2.10;;;0.70;;
22768;SDS011;13001;51.968;5.918;2024-03-02T10:50:17;1.57;;;0.40;;
22768;SDS011;13001;51.968;5.918;2024-03-02T10:52:45;1.83;;;0.53;;
22768;SDS011;13001;51.968;5.918;2024-03-02T10:55:12;1.63;;;0.50;;
22768;SDS011;13001;51.968;5.918;2024-03-02T10:57:53;6.47;;;0.80;;
22768;SDS011;13001;51.968;5.918;2024-03-02T11:00:24;1.37;;;0.50;;
22768;SDS011;13001;51.968;5.918;2024-03-02T11:02:56;1.17;;;0.40;;
22768;SDS011;13001;51.968;5.918;2024-03-02T11:05:33;2.13;;;0.40;;
22768;SDS011;13001;51.968;5.918;2024-03-02T11:08:02;5.17;;;0.60;;
22768;SDS011;13001;51.968;5.918;2024-03-02T11:10:50;2.50;;;0.60;;
22768;SDS011;13001;51.968;5.918;2024-03-02T11:13:31;2.70;;;0.70;;
22768;SDS011;13001;51.968;5.918;2024-03-02T11:15:51;3.23;;;0.60;;
22768;SDS011;13001;51.968;5.918;2024-03-02T11:18:20;2.63;;;0.73;;
22768;SDS011;13001;51.968;5.918;2024-03-02T11:20:48;1.97;;;0.60;;
22768;SDS011;13001;51.968;5.918;2024-03-02T11:23:16;1.70;;;0.50;;
22768;SDS011;13001;51.968;5.918;2024-03-02T11:25:44;2.47;;;0.50;;
22768;SDS011;13001;51.968;5.918;2024-03-02T11:28:15;2.97;;;0.70;;
22768;SDS011;13001;51.968;5.918;2024-03-02T11:33:16;1.97;;;0.53;;
22768;SDS011;13001;51.968;5.918;2024-03-02T11:35:46;1.37;;;0.50;;
22768;SDS011;13001;51.968;5.918;2024-03-02T11:38:14;2.80;;;0.50;;
22768;SDS011;13001;51.968;5.918;2024-03-02T11:40:42;1.97;;;0.70;;
22768;SDS011;13001;51.968;5.918;2024-03-02T11:43:09;2.00;;;0.67;;
22768;SDS011;13001;51.968;5.918;2024-03-02T11:45:40;2.30;;;0.63;;
22768;SDS011;13001;51.968;5.918;2024-03-02T11:48:10;4.67;;;0.70;;
22768;SDS011;13001;51.968;5.918;2024-03-02T11:50:46;1.40;;;0.60;;
22768;SDS011;13001;51.968;5.918;2024-03-02T11:53:15;2.67;;;0.60;;
22768;SDS011;13001;51.968;5.918;2024-03-02T11:55:44;2.20;;;0.70;;
22768;SDS011;13001;51.968;5.918;2024-03-02T11:58:15;2.30;;;0.60;;
22768;SDS011;13001;51.968;5.918;2024-03-02T12:00:45;4.50;;;0.57;;
22768;SDS011;13001;51.968;5.918;2024-03-02T12:03:13;1.20;;;0.50;;
22768;SDS011;13001;51.968;5.918;2024-03-02T12:05:41;3.10;;;0.80;;
22768;SDS011;13001;51.968;5.918;2024-03-02T12:08:11;2.30;;;0.60;;
22768;SDS011;13001;51.968;5.918;2024-03-02T12:10:39;1.40;;;0.50;;
22768;SDS011;13001;51.968;5.918;2024-03-02T12:13:07;4.83;;;0.57;;
22768;SDS011;13001;51.968;5.918;2024-03-02T12:15:36;1.30;;;0.50;;
22768;SDS011;13001;51.968;5.918;2024-03-02T12:18:07;2.70;;;0.60;;
22768;SDS011;13001;51.968;5.918;2024-03-02T12:20:36;2.43;;;0.60;;
22768;SDS011;13001;51.968;5.918;2024-03-02T12:23:05;1.80;;;0.57;;
22768;SDS011;13001;51.968;5.918;2024-03-02T12:25:33;3.50;;;0.70;;
22768;SDS011;13001;51.968;5.918;2024-03-02T12:28:01;4.27;;;0.60;;
22768;SDS011;13001;51.968;5.918;2024-03-02T12:30:29;3.77;;;0.60;;
22768;SDS011;13001;51.968;5.918;2024-03-02T12:32:59;11.17;;;0.70;;
22768;SDS011;13001;51.968;5.918;2024-03-02T12:35:27;1.93;;;0.50;;
22768;SDS011;13001;51.968;5.918;2024-03-02T12:37:55;1.50;;;0.60;;
22768;SDS011;13001;51.968;5.918;2024-03-02T12:40:24;2.20;;;0.53;;
22768;SDS011;13001;51.968;5.918;2024-03-02T12:42:51;2.33;;;0.60;;
22768;SDS011;13001;51.968;5.918;2024-03-02T12:45:19;2.50;;;0.60;;
22768;SDS011;13001;51.968;5.918;2024-03-02T12:47:50;2.93;;;0.60;;
22768;SDS011;13001;51.968;5.918;2024-03-02T12:50:18;2.30;;;0.50;;
22768;SDS011;13001;51.968;5.918;2024-03-02T12:52:51;3.63;;;0.60;;
22768;SDS011;13001;51.968;5.918;2024-03-02T12:55:21;2.10;;;0.60;;
22768;SDS011;13001;51.968;5.918;2024-03-02T12:57:52;2.33;;;0.80;;
22768;SDS011;13001;51.968;5.918;2024-03-02T13:00:20;1.70;;;0.50;;
22768;SDS011;13001;51.968;5.918;2024-03-02T13:02:49;5.70;;;0.60;;
22768;SDS011;13001;51.968;5.918;2024-03-02T13:05:17;3.43;;;0.70;;
22768;SDS011;13001;51.968;5.918;2024-03-02T13:07:46;3.37;;;0.60;;
22768;SDS011;13001;51.968;5.918;2024-03-02T13:10:15;2.53;;;0.63;;
22768;SDS011;13001;51.968;5.918;2024-03-02T13:12:43;2.47;;;0.60;;
22768;SDS011;13001;51.968;5.918;2024-03-02T13:15:11;4.13;;;0.90;;
22768;SDS011;13001;51.968;5.918;2024-03-02T13:17:39;2.10;;;0.70;;
22768;SDS011;13001;51.968;5.918;2024-03-02T13:20:06;2.63;;;0.70;;
22768;SDS011;13001;51.968;5.918;2024-03-02T13:22:36;4.27;;;0.80;;
22768;SDS011;13001;51.968;5.918;2024-03-02T13:25:04;5.33;;;0.80;;
22768;SDS011;13001;51.968;5.918;2024-03-02T13:27:33;4.93;;;0.80;;
22768;SDS011;13001;51.968;5.918;2024-03-02T13:30:04;1.20;;;0.60;;
22768;SDS011;13001;51.968;5.918;2024-03-02T13:32:34;2.57;;;0.80;;
22768;SDS011;13001;51.968;5.918;2024-03-02T13:35:01;4.00;;;0.70;;
22768;SDS011;13001;51.968;5.918;2024-03-02T13:37:29;3.87;;;0.97;;
22768;SDS011;13001;51.968;5.918;2024-03-02T13:39:56;3.33;;;0.80;;
22768;SDS011;13001;51.968;5.918;2024-03-02T13:42:24;2.13;;;0.80;;
22768;SDS011;13001;51.968;5.918;2024-03-02T13:44:53;2.23;;;0.80;;
22768;SDS011;13001;51.968;5.918;2024-03-02T13:47:20;3.07;;;0.77;;
22768;SDS011;13001;51.968;5.918;2024-03-02T13:49:48;5.53;;;0.60;;
22768;SDS011;13001;51.968;5.918;2024-03-02T13:52:15;4.40;;;0.80;;
22768;SDS011;13001;51.968;5.918;2024-03-02T13:54:44;3.57;;;0.77;;
22768;SDS011;13001;51.968;5.918;2024-03-02T13:57:13;1.50;;;0.70;;
22768;SDS011;13001;51.968;5.918;2024-03-02T13:59:41;1.57;;;0.50;;
22768;SDS011;13001;51.968;5.918;2024-03-02T14:02:09;4.17;;;0.70;;
22768;SDS011;13001;51.968;5.918;2024-03-02T14:04:38;3.97;;;0.90;;
22768;SDS011;13001;51.968;5.918;2024-03-02T14:07:05;1.53;;;0.60;;
22768;SDS011;13001;51.968;5.918;2024-03-02T14:09:33;1.37;;;0.70;;
22768;SDS011;13001;51.968;5.918;2024-03-02T14:12:01;3.33;;;0.90;;
22768;SDS011;13001;51.968;5.918;2024-03-02T14:14:29;5.20;;;0.83;;
22768;SDS011;13001;51.968;5.918;2024-03-02T14:16:57;3.40;;;0.70;;
22768;SDS011;13001;51.968;5.918;2024-03-02T14:19:29;4.17;;;0.60;;
22768;SDS011;13001;51.968;5.918;2024-03-02T14:21:56;3.47;;;0.73;;
22768;SDS011;13001;51.968;5.918;2024-03-02T14:24:24;7.07;;;0.90;;
22768;SDS011;13001;51.968;5.918;2024-03-02T14:26:53;2.43;;;0.63;;
22768;SDS011;13001;51.968;5.918;2024-03-02T14:29:23;1.57;;;0.50;;
22768;SDS011;13001;51.968;5.918;2024-03-02T14:31:53;2.60;;;0.70;;
22768;SDS011;13001;51.968;5.918;2024-03-02T14:34:21;3.60;;;0.60;;
22768;SDS011;13001;51.968;5.918;2024-03-02T14:36:48;4.60;;;0.70;;
22768;SDS011;13001;51.968;5.918;2024-03-02T14:39:16;2.60;;;0.67;;
22768;SDS011;13001;51.968;5.918;2024-03-02T14:41:45;2.43;;;0.70;;
22768;SDS011;13001;51.968;5.918;2024-03-02T14:44:13;3.70;;;0.73;;
22768;SDS011;13001;51.968;5.918;2024-03-02T14:46:41;2.90;;;0.60;;
22768;SDS011;13001;51.968;5.918;2024-03-02T14:49:09;2.03;;;0.60;;
22768;SDS011;13001;51.968;5.918;2024-03-02T14:51:37;2.50;;;0.67;;
22768;SDS011;13001;51.968;5.918;2024-03-02T14:54:06;2.67;;;0.80;;
22768;SDS011;13001;51.968;5.918;2024-03-02T14:56:34;7.60;;;0.63;;
22768;SDS011;13001;51.968;5.918;2024-03-02T14:59:02;4.13;;;0.70;;